Time;durP1;ratioP1;P1;durP2;ratioP2;P2;SDS_P1;SDS_P2;PMS_P1;PMS_P2;Temp;Humidity;BMP_temperature;BMP_pressure;BME280_temperature;BME280_humidity;BME280_pressure;Samples;Min_cycle;Max_cycle;Signal;HPM_P1;HPM_P2
2022/03/06 00:01:06;;;;;;;13.60;10.27;;;3.30;34.70;;;;;;5137596;27;20951;-46
2022/03/06 00:03:32;;;;;;;15.70;11.23;;;3.30;34.80;;;;;;5138659;27;20187;-46
2022/03/06 00:05:57;;;;;;;16.90;11.47;;;3.30;34.80;;;;;;5137685;27;20532;-46
2022/03/06 00:08:23;;;;;;;17.07;11.13;;;3.30;34.80;;;;;;5138805;27;20195;-46
2022/03/06 00:10:50;;;;;;;14.87;11.57;;;3.30;34.90;;;;;;5119795;27;20199;-46
2022/03/06 00:13:16;;;;;;;15.03;11.07;;;3.30;34.90;;;;;;5139559;27;20218;-47
2022/03/06 00:15:42;;;;;;;17.60;11.73;;;3.20;34.90;;;;;;5136878;27;20429;-46
2022/03/06 00:18:08;;;;;;;14.87;11.27;;;3.20;35.00;;;;;;5136701;27;20409;-46
2022/03/06 00:20:34;;;;;;;15.90;12.00;;;3.20;35.10;;;;;;5113550;28;20515;-46
2022/03/06 00:23:00;;;;;;;17.27;11.63;;;3.10;35.00;;;;;;5116755;28;20771;-46
2022/03/06 00:25:25;;;;;;;16.93;12.57;;;3.10;35.10;;;;;;5114827;28;20197;-46
2022/03/06 00:27:51;;;;;;;16.60;12.47;;;3.10;35.30;;;;;;5116544;28;20182;-46
2022/03/06 00:30:17;;;;;;;16.80;13.03;;;3.10;35.40;;;;;;5114420;28;20188;-46
2022/03/06 00:32:43;;;;;;;17.77;13.30;;;3.10;35.40;;;;;;5126048;27;20242;-46
2022/03/06 00:35:10;;;;;;;16.67;12.53;;;3.10;35.50;;;;;;5136581;27;20596;-46
2022/03/06 00:37:36;;;;;;;20.00;12.63;;;3.00;35.40;;;;;;5138492;27;20179;-46
2022/03/06 00:40:03;;;;;;;16.67;12.50;;;3.00;35.40;;;;;;5137206;27;20409;-46
2022/03/06 00:42:29;;;;;;;15.07;11.37;;;3.00;35.40;;;;;;5137551;27;20175;-46
2022/03/06 00:44:55;;;;;;;14.80;11.47;;;3.00;35.50;;;;;;5138655;27;20416;-46
2022/03/06 00:47:20;;;;;;;16.40;10.93;;;3.00;35.60;;;;;;5136965;27;20191;-45
2022/03/06 00:49:46;;;;;;;17.13;11.90;;;3.00;35.60;;;;;;5137774;27;20172;-46
2022/03/06 00:52:12;;;;;;;17.00;11.97;;;2.90;35.60;;;;;;5136257;27;20195;-46
2022/03/06 00:54:38;;;;;;;15.97;11.57;;;2.90;35.70;;;;;;5138432;27;20190;-46
2022/03/06 00:57:04;;;;;;;19.03;12.20;;;2.90;35.80;;;;;;5135687;27;20424;-46
2022/03/06 00:59:34;;;;;;;15.47;12.30;;;2.90;35.90;;;;;;5136878;27;20572;-46
2022/03/06 01:02:04;;;;;;;14.23;10.70;;;2.80;36.00;;;;;;5134477;27;20477;-46
2022/03/06 01:04:30;;;;;;;16.80;11.60;;;2.80;36.10;;;;;;5136656;27;20417;-46
2022/03/06 01:06:56;;;;;;;15.80;11.27;;;2.80;36.10;;;;;;5134406;27;20617;-43
2022/03/06 01:09:21;;;;;;;18.57;11.87;;;2.80;36.20;;;;;;5136402;27;20444;-44
2022/03/06 01:11:48;;;;;;;16.27;10.87;;;2.70;36.20;;;;;;5137182;27;20432;-44
2022/03/06 01:14:13;;;;;;;15.77;11.00;;;2.70;36.30;;;;;;5135191;27;20437;-48
2022/03/06 01:16:39;;;;;;;17.13;11.90;;;2.70;36.40;;;;;;5137447;28;20409;-44
2022/03/06 01:19:05;;;;;;;16.73;12.37;;;2.70;36.40;;;;;;5135595;28;20187;-45
2022/03/06 01:21:30;;;;;;;16.80;11.63;;;2.70;36.50;;;;;;5137220;28;20207;-44
2022/03/06 01:23:56;;;;;;;16.60;11.30;;;2.70;36.60;;;;;;5136047;28;20196;-45
2022/03/06 01:26:22;;;;;;;15.83;10.93;;;2.70;36.80;;;;;;5138122;27;20184;-45
2022/03/06 01:28:47;;;;;;;16.37;11.20;;;2.70;36.90;;;;;;5139170;27;20195;-44
2022/03/06 01:31:13;;;;;;;19.20;13.53;;;2.70;37.00;;;;;;5140056;27;20507;-45
2022/03/06 01:33:39;;;;;;;17.27;11.10;;;2.60;37.00;;;;;;5137207;27;20227;-45
2022/03/06 01:36:05;;;;;;;17.47;11.13;;;2.60;37.10;;;;;;5140068;27;20413;-44
2022/03/06 01:38:30;;;;;;;15.07;10.93;;;2.60;37.10;;;;;;5139128;27;20191;-44
2022/03/06 01:40:56;;;;;;;15.93;11.00;;;2.60;37.20;;;;;;5139561;27;20258;-44
2022/03/06 01:43:22;;;;;;;16.43;12.33;;;2.60;37.30;;;;;;5138345;27;20188;-45
2022/03/06 01:45:48;;;;;;;14.13;10.37;;;2.60;37.30;;;;;;5141220;27;20460;-52
2022/03/06 01:48:14;;;;;;;18.07;12.57;;;2.60;37.40;;;;;;5105376;27;20452;-45
2022/03/06 01:50:40;;;;;;;14.80;11.50;;;2.60;37.40;;;;;;5141750;27;20417;-45
2022/03/06 01:53:08;;;;;;;16.00;11.00;;;2.60;37.40;;;;;;5140653;27;20191;-46
2022/03/06 01:55:34;;;;;;;15.30;10.67;;;2.60;37.50;;;;;;5141858;27;20513;-44
2022/03/06 01:58:03;;;;;;;16.33;11.40;;;2.50;37.50;;;;;;5140089;27;20436;-46
2022/03/06 02:00:30;;;;;;;15.33;10.53;;;2.60;37.60;;;;;;5140732;27;20571;-45
2022/03/06 02:02:56;;;;;;;16.17;11.40;;;2.50;37.60;;;;;;5139404;27;20746;-45
2022/03/06 02:05:22;;;;;;;15.40;10.70;;;2.50;37.70;;;;;;5141119;27;20424;-43
2022/03/06 02:07:48;;;;;;;13.07;10.17;;;2.50;37.70;;;;;;5140238;27;20183;-44
2022/03/06 02:10:15;;;;;;;15.47;10.87;;;2.50;37.80;;;;;;5142475;27;20424;-45
2022/03/06 02:12:43;;;;;;;15.53;10.13;;;2.40;37.70;;;;;;5141012;27;20521;-45
2022/03/06 02:15:11;;;;;;;15.00;10.37;;;2.40;37.80;;;;;;5122580;27;20491;-45
2022/03/06 02:17:38;;;;;;;14.53;10.50;;;2.40;37.80;;;;;;5121042;27;20425;-45
2022/03/06 02:20:06;;;;;;;13.40;9.97;;;2.40;37.90;;;;;;5141271;27;20440;-45
2022/03/06 02:22:33;;;;;;;16.60;11.33;;;2.40;37.90;;;;;;5138443;27;20443;-45
2022/03/06 02:25:02;;;;;;;18.67;11.03;;;2.40;38.00;;;;;;5138556;27;20452;-45
2022/03/06 02:27:28;;;;;;;17.67;11.27;;;2.30;38.00;;;;;;5136591;27;20490;-45
2022/03/06 02:29:53;;;;;;;17.27;12.43;;;2.30;38.00;;;;;;5139435;27;20444;-45
2022/03/06 02:32:21;;;;;;;17.70;13.00;;;2.30;38.10;;;;;;5137628;27;20355;-45
2022/03/06 02:34:49;;;;;;;16.10;11.73;;;2.30;38.10;;;;;;5121291;27;20280;-45
2022/03/06 02:37:18;;;;;;;19.10;12.77;;;2.30;38.20;;;;;;5138336;27;20409;-45
2022/03/06 02:39:44;;;;;;;15.93;11.73;;;2.30;38.30;;;;;;5140545;27;20686;-45
2022/03/06 02:42:11;;;;;;;16.10;12.30;;;2.20;38.20;;;;;;5121140;27;20493;-46
2022/03/06 02:44:37;;;;;;;15.30;10.97;;;2.30;38.40;;;;;;5122740;27;20417;-45
2022/03/06 02:47:03;;;;;;;16.87;11.63;;;2.20;38.40;;;;;;5139804;27;20466;-46
2022/03/06 02:49:29;;;;;;;14.73;10.63;;;2.20;38.40;;;;;;5141548;27;20471;-46
2022/03/06 02:51:55;;;;;;;16.60;10.30;;;2.20;38.50;;;;;;5140577;27;20446;-45
2022/03/06 02:54:21;;;;;;;21.23;12.50;;;2.20;38.50;;;;;;5139589;27;20503;-45
2022/03/06 02:56:47;;;;;;;14.73;11.07;;;2.20;38.60;;;;;;5140079;27;20244;-45
2022/03/06 02:59:13;;;;;;;16.80;11.97;;;2.20;38.70;;;;;;5137958;27;20242;-45
2022/03/06 03:01:42;;;;;;;15.10;11.27;;;2.10;38.70;;;;;;5140036;27;20433;-45
2022/03/06 03:04:11;;;;;;;16.40;11.90;;;2.10;38.80;;;;;;5137965;27;20529;-45
2022/03/06 03:06:38;;;;;;;17.47;11.20;;;2.10;38.80;;;;;;5140396;27;20418;-45
2022/03/06 03:09:06;;;;;;;14.97;10.63;;;2.10;38.90;;;;;;5139418;27;20528;-46
2022/03/06 03:11:33;;;;;;;16.37;11.57;;;2.10;38.90;;;;;;5140739;27;20808;-45
2022/03/06 03:13:59;;;;;;;17.60;11.37;;;2.00;38.90;;;;;;5139245;27;20421;-45
2022/03/06 03:16:25;;;;;;;16.37;12.23;;;2.00;38.90;;;;;;5122621;27;20417;-45
2022/03/06 03:18:51;;;;;;;17.70;11.53;;;2.00;39.00;;;;;;5121097;27;20725;-45
2022/03/06 03:21:16;;;;;;;16.93;11.60;;;2.00;39.00;;;;;;5122965;27;20259;-45
2022/03/06 03:23:42;;;;;;;16.47;11.53;;;2.00;39.10;;;;;;5139205;27;20223;-45
2022/03/06 03:26:08;;;;;;;15.10;10.90;;;1.90;39.10;;;;;;5140856;27;20203;-45
2022/03/06 03:28:33;;;;;;;16.70;10.47;;;1.90;39.20;;;;;;5138773;27;20600;-44
2022/03/06 03:30:59;;;;;;;15.50;10.63;;;1.90;39.30;;;;;;5140094;27;20492;-45
2022/03/06 03:33:25;;;;;;;16.10;10.60;;;1.80;39.30;;;;;;5137695;27;20609;-45
2022/03/06 03:35:50;;;;;;;17.93;12.57;;;1.80;39.50;;;;;;5138870;27;20175;-44
2022/03/06 03:38:16;;;;;;;16.47;11.73;;;1.80;39.50;;;;;;5136214;27;20227;-45
2022/03/06 03:40:42;;;;;;;17.30;12.07;;;1.70;39.50;;;;;;5137289;27;20772;-44
2022/03/06 03:43:07;;;;;;;15.57;10.97;;;1.60;39.50;;;;;;5136061;27;20266;-44
2022/03/06 03:45:33;;;;;;;17.20;11.57;;;1.60;39.60;;;;;;5137178;27;20206;-44
2022/03/06 03:47:58;;;;;;;19.33;11.67;;;1.60;39.60;;;;;;5135660;27;20488;-45
2022/03/06 03:50:24;;;;;;;15.13;11.43;;;1.50;39.70;;;;;;5138097;27;20520;-45
2022/03/06 03:52:50;;;;;;;16.77;12.60;;;1.50;39.80;;;;;;5138075;27;20574;-44
2022/03/06 03:55:15;;;;;;;17.37;12.40;;;1.40;39.80;;;;;;5140194;27;20531;-44
2022/03/06 03:57:41;;;;;;;15.90;11.70;;;1.40;39.80;;;;;;5138372;27;20491;-44
2022/03/06 04:00:07;;;;;;;17.30;12.83;;;1.30;39.80;;;;;;5140128;27;20171;-45
2022/03/06 04:02:33;;;;;;;16.60;12.63;;;1.40;40.00;;;;;;5138165;27;20210;-45
2022/03/06 04:04:58;;;;;;;16.77;11.97;;;1.30;40.00;;;;;;5139931;27;20405;-44
2022/03/06 04:07:24;;;;;;;19.07;13.23;;;1.30;40.00;;;;;;5137965;27;20273;-45
2022/03/06 04:09:50;;;;;;;16.43;12.00;;;1.30;40.10;;;;;;5139886;27;20183;-45
2022/03/06 04:12:16;;;;;;;14.20;10.53;;;1.20;40.10;;;;;;5137539;27;20305;-43
2022/03/06 04:14:41;;;;;;;16.80;11.47;;;1.20;40.20;;;;;;5139455;27;20577;-45
2022/03/06 04:17:07;;;;;;;17.27;12.10;;;1.20;40.20;;;;;;5137461;27;20476;-45
2022/03/06 04:19:33;;;;;;;16.80;12.23;;;1.10;40.20;;;;;;5139411;27;20470;-45
2022/03/06 04:21:58;;;;;;;16.90;12.67;;;1.10;40.30;;;;;;5138041;27;20215;-45
2022/03/06 04:24:24;;;;;;;15.20;12.07;;;1.10;40.30;;;;;;5139497;27;20655;-45
2022/03/06 04:26:50;;;;;;;17.90;12.33;;;1.00;40.30;;;;;;5139303;27;20259;-44
2022/03/06 04:29:15;;;;;;;17.70;12.67;;;1.00;40.30;;;;;;5138574;27;20469;-45
2022/03/06 04:31:41;;;;;;;18.20;13.30;;;1.00;40.40;;;;;;5139532;27;20238;-45
2022/03/06 04:34:06;;;;;;;16.80;12.57;;;1.00;40.50;;;;;;5137523;27;20203;-45
2022/03/06 04:36:32;;;;;;;18.80;11.70;;;1.00;40.60;;;;;;5138952;27;20190;-45
2022/03/06 04:38:58;;;;;;;16.87;11.53;;;0.90;40.60;;;;;;5138039;27;20183;-45
2022/03/06 04:41:24;;;;;;;19.27;13.40;;;0.90;40.60;;;;;;5139000;27;20190;-45
2022/03/06 04:43:52;;;;;;;15.93;11.37;;;0.90;40.70;;;;;;5137513;27;20429;-45
2022/03/06 04:46:18;;;;;;;20.80;13.43;;;0.80;40.80;;;;;;5139209;27;20554;-44
2022/03/06 04:48:44;;;;;;;17.00;12.30;;;0.80;40.90;;;;;;5136993;27;20708;-45
2022/03/06 04:51:09;;;;;;;17.97;12.13;;;0.80;41.00;;;;;;5138914;27;20464;-44
2022/03/06 04:53:36;;;;;;;16.57;12.17;;;0.80;41.10;;;;;;5137259;27;20439;-45
2022/03/06 04:56:03;;;;;;;16.37;11.83;;;0.80;41.10;;;;;;5138664;27;20191;-45
2022/03/06 04:58:29;;;;;;;18.37;12.13;;;0.70;41.10;;;;;;5102492;27;20855;-45
2022/03/06 05:00:55;;;;;;;16.37;12.00;;;0.70;41.10;;;;;;5138682;27;20515;-45
2022/03/06 05:03:20;;;;;;;17.30;10.83;;;0.60;41.10;;;;;;5137696;27;20447;-46
2022/03/06 05:05:46;;;;;;;17.50;12.43;;;0.60;41.20;;;;;;5139187;27;20199;-46
2022/03/06 05:08:12;;;;;;;16.47;10.90;;;0.60;41.30;;;;;;5137633;27;20201;-46
2022/03/06 05:10:38;;;;;;;17.60;11.70;;;0.60;41.30;;;;;;5138681;27;20218;-46
2022/03/06 05:13:04;;;;;;;16.20;12.57;;;0.70;41.30;;;;;;5137566;27;20536;-46
2022/03/06 05:15:29;;;;;;;15.70;11.30;;;0.70;41.30;;;;;;5121140;28;20183;-46
2022/03/06 05:17:55;;;;;;;15.30;11.47;;;0.70;41.30;;;;;;5136774;28;20559;-46
2022/03/06 05:20:21;;;;;;;17.40;12.57;;;0.70;41.30;;;;;;5139080;28;20274;-46
2022/03/06 05:22:46;;;;;;;17.60;12.20;;;0.70;41.80;;;;;;5137219;28;20499;-46
2022/03/06 05:25:12;;;;;;;15.90;11.37;;;0.70;41.30;;;;;;5138811;28;20279;-46
2022/03/06 05:27:38;;;;;;;17.40;12.17;;;0.70;41.30;;;;;;5137439;28;20191;-46
2022/03/06 05:30:06;;;;;;;21.13;12.50;;;0.60;41.30;;;;;;5119636;28;20171;-46
2022/03/06 05:32:32;;;;;;;15.97;10.73;;;0.60;41.40;;;;;;5137246;28;20523;-46
2022/03/06 05:34:58;;;;;;;16.93;11.00;;;0.60;41.40;;;;;;5138840;28;20409;-46
2022/03/06 05:37:24;;;;;;;17.93;12.23;;;0.50;41.40;;;;;;5136651;28;20188;-46
2022/03/06 05:39:49;;;;;;;18.50;12.30;;;0.50;41.60;;;;;;5138589;28;20328;-45
2022/03/06 05:42:16;;;;;;;16.17;11.03;;;0.50;41.50;;;;;;5136815;28;20195;-46
2022/03/06 05:44:42;;;;;;;19.03;12.50;;;0.40;41.50;;;;;;5138719;28;20530;-46
2022/03/06 05:47:07;;;;;;;17.43;11.90;;;0.40;41.50;;;;;;5136984;28;20413;-46
2022/03/06 05:49:33;;;;;;;19.60;12.53;;;0.50;41.60;;;;;;5138734;28;20180;-46
2022/03/06 05:51:59;;;;;;;16.60;11.77;;;0.50;41.60;;;;;;5137421;28;20258;-46
2022/03/06 05:54:24;;;;;;;16.50;11.53;;;0.40;41.60;;;;;;5119460;28;20184;-45
2022/03/06 05:56:50;;;;;;;14.87;11.07;;;0.40;41.70;;;;;;5120413;28;20184;-46
2022/03/06 05:59:16;;;;;;;18.80;11.93;;;0.40;41.80;;;;;;5136752;28;20192;-46
2022/03/06 06:01:41;;;;;;;20.93;12.27;;;0.40;41.90;;;;;;5138716;28;20196;-46
2022/03/06 06:04:07;;;;;;;18.10;12.47;;;0.30;41.90;;;;;;5136740;28;20282;-46
2022/03/06 06:06:33;;;;;;;18.60;12.10;;;0.30;42.00;;;;;;5138092;28;20190;-46
2022/03/06 06:08:58;;;;;;;19.20;12.00;;;0.30;42.10;;;;;;5136837;28;20280;-46
2022/03/06 06:11:25;;;;;;;18.80;11.90;;;0.30;42.10;;;;;;5138121;27;20211;-46
2022/03/06 06:13:50;;;;;;;18.57;13.10;;;0.30;42.10;;;;;;5138132;27;20183;-46
2022/03/06 06:16:16;;;;;;;19.83;14.67;;;0.30;42.20;;;;;;5140526;27;20415;-46
2022/03/06 06:18:41;;;;;;;23.73;13.50;;;0.30;42.20;;;;;;5139160;27;20191;-45
2022/03/06 06:21:07;;;;;;;22.00;14.63;;;0.30;42.30;;;;;;5140444;27;20183;-46
2022/03/06 06:23:33;;;;;;;22.90;14.10;;;0.30;42.30;;;;;;5138285;27;20202;-46
2022/03/06 06:25:59;;;;;;;24.13;15.67;;;0.30;42.30;;;;;;5141033;27;20286;-46
2022/03/06 06:28:24;;;;;;;22.43;14.27;;;0.30;42.30;;;;;;5140072;27;20430;-46
2022/03/06 06:30:50;;;;;;;24.80;15.33;;;0.40;42.40;;;;;;5141426;27;20302;-46
2022/03/06 06:33:16;;;;;;;25.10;15.27;;;0.40;42.40;;;;;;5120661;27;20236;-46
2022/03/06 06:35:42;;;;;;;24.67;15.00;;;0.50;42.50;;;;;;5140179;27;20183;-46
2022/03/06 06:38:07;;;;;;;22.83;13.47;;;0.60;42.60;;;;;;5139164;27;20191;-46
2022/03/06 06:40:34;;;;;;;22.60;13.83;;;0.70;42.60;;;;;;5140009;27;20593;-45
2022/03/06 06:43:00;;;;;;;19.77;12.80;;;0.80;42.70;;;;;;5138659;27;20423;-46
2022/03/06 06:45:26;;;;;;;21.73;13.93;;;1.00;42.80;;;;;;5140484;27;20219;-46
2022/03/06 06:47:51;;;;;;;22.57;14.70;;;1.20;42.80;;;;;;5139304;27;20195;-46
2022/03/06 06:50:17;;;;;;;21.27;13.73;;;1.40;42.80;;;;;;5141614;27;20180;-46
2022/03/06 06:52:43;;;;;;;22.83;13.50;;;1.50;42.70;;;;;;5140583;27;20246;-47
2022/03/06 06:55:08;;;;;;;23.23;14.20;;;1.70;42.70;;;;;;5140870;27;20187;-47
2022/03/06 06:57:34;;;;;;;19.30;14.20;;;1.90;42.60;;;;;;5138967;27;20453;-47
2022/03/06 07:00:01;;;;;;;21.87;14.63;;;2.10;42.60;;;;;;5140628;27;20428;-46
2022/03/06 07:02:27;;;;;;;23.67;14.73;;;2.30;42.50;;;;;;5139269;27;20183;-47
2022/03/06 07:04:52;;;;;;;20.10;13.20;;;2.50;42.30;;;;;;5138934;27;20508;-46
2022/03/06 07:07:18;;;;;;;21.60;14.10;;;2.70;42.10;;;;;;5137763;27;20179;-46
2022/03/06 07:09:45;;;;;;;22.87;14.33;;;2.90;41.90;;;;;;5140109;27;20195;-46
2022/03/06 07:12:11;;;;;;;19.17;13.80;;;3.20;41.80;;;;;;5139006;27;20363;-46
2022/03/06 07:14:37;;;;;;;18.17;13.27;;;3.40;41.50;;;;;;5139807;27;20503;-47
2022/03/06 07:17:03;;;;;;;17.87;13.97;;;3.70;41.40;;;;;;5137455;27;20428;-47
2022/03/06 07:19:29;;;;;;;18.47;13.13;;;3.90;41.20;;;;;;5139173;27;20823;-46
2022/03/06 07:21:54;;;;;;;17.07;13.17;;;4.20;41.00;;;;;;5137779;27;20420;-46
2022/03/06 07:24:20;;;;;;;16.30;13.00;;;4.40;40.80;;;;;;5136286;27;20530;-47
2022/03/06 07:26:46;;;;;;;18.63;14.23;;;4.70;40.60;;;;;;5138328;27;20520;-47
2022/03/06 07:29:11;;;;;;;18.40;14.23;;;4.90;40.90;;;;;;5138057;27;20201;-46
2022/03/06 07:31:37;;;;;;;19.10;13.37;;;5.20;40.20;;;;;;5139314;27;20214;-46
2022/03/06 07:34:03;;;;;;;22.30;16.33;;;5.50;40.00;;;;;;5137368;27;20211;-46
2022/03/06 07:36:29;;;;;;;19.27;14.17;;;5.70;39.60;;;;;;5139662;27;20274;-46
2022/03/06 07:38:54;;;;;;;19.93;14.30;;;6.00;39.40;;;;;;5139130;27;20534;-47
2022/03/06 07:41:20;;;;;;;17.30;13.87;;;6.30;39.10;;;;;;5138829;27;20195;-47
2022/03/06 07:43:46;;;;;;;17.90;13.50;;;6.50;38.80;;;;;;5139720;27;20557;-46
2022/03/06 07:46:11;;;;;;;21.33;16.00;;;6.80;38.50;;;;;;5138032;27;20179;-46
2022/03/06 07:48:37;;;;;;;17.30;15.37;;;7.10;38.20;;;;;;5137598;27;20183;-47
2022/03/06 07:51:03;;;;;;;19.67;14.90;;;7.40;37.90;;;;;;5136241;27;20244;-46
2022/03/06 07:53:29;;;;;;;15.87;14.10;;;7.70;37.60;;;;;;5138486;27;20191;-46
2022/03/06 07:55:55;;;;;;;18.13;14.93;;;8.00;37.20;;;;;;5136180;27;20425;-46
2022/03/06 07:58:21;;;;;;;15.90;13.47;;;8.20;36.80;;;;;;5136629;27;20514;-46
2022/03/06 08:00:46;;;;;;;19.47;14.87;;;8.50;36.50;;;;;;5135654;27;20222;-46
2022/03/06 08:03:12;;;;;;;20.37;15.67;;;8.80;36.20;;;;;;5139360;27;20187;-46
2022/03/06 08:05:38;;;;;;;17.33;14.70;;;9.10;35.80;;;;;;5137228;27;20179;-47
2022/03/06 08:08:04;;;;;;;18.13;14.20;;;9.40;35.40;;;;;;5138285;27;20424;-47
2022/03/06 08:10:30;;;;;;;18.27;15.03;;;9.60;35.10;;;;;;5137585;27;20465;-46
2022/03/06 08:12:56;;;;;;;16.90;15.03;;;9.80;34.70;;;;;;5120562;27;20433;-46
2022/03/06 08:15:22;;;;;;;16.60;14.00;;;10.10;33.70;;;;;;5133944;27;20596;-46
2022/03/06 08:17:47;;;;;;;19.20;15.37;;;10.40;33.50;;;;;;5127393;27;20405;-46
2022/03/06 08:20:14;;;;;;;17.77;14.83;;;10.70;33.30;;;;;;5127471;27;20258;-46
2022/03/06 08:22:39;;;;;;;18.50;14.90;;;11.10;33.20;;;;;;5127227;27;20180;-46
2022/03/06 08:25:06;;;;;;;18.07;15.93;;;11.30;32.80;;;;;;5127483;27;20516;-46
2022/03/06 08:27:33;;;;;;;18.03;15.63;;;11.70;32.60;;;;;;5119003;27;20689;-45
2022/03/06 08:30:00;;;;;;;17.63;15.60;;;12.00;32.30;;;;;;5125614;27;20425;-46
2022/03/06 08:32:26;;;;;;;17.93;15.87;;;12.30;31.90;;;;;;5138830;27;20485;-46
2022/03/06 08:34:51;;;;;;;17.40;14.70;;;12.60;31.60;;;;;;5118110;28;20848;-46
2022/03/06 08:37:20;;;;;;;18.20;16.17;;;12.90;31.20;;;;;;5137311;27;20187;-46
2022/03/06 08:39:47;;;;;;;18.70;16.43;;;13.20;30.60;;;;;;5135612;27;20175;-46
2022/03/06 08:42:13;;;;;;;17.40;15.57;;;13.50;30.30;;;;;;5136937;27;20699;-46
2022/03/06 08:44:39;;;;;;;17.47;15.67;;;13.90;30.10;;;;;;5135572;27;20564;-46
2022/03/06 08:47:05;;;;;;;17.03;15.33;;;14.20;29.80;;;;;;5118417;27;20721;-46
2022/03/06 08:49:31;;;;;;;18.43;16.50;;;14.50;29.40;;;;;;5135225;27;20422;-46
2022/03/06 08:51:57;;;;;;;16.07;14.40;;;14.80;29.20;;;;;;5137202;27;20972;-46
2022/03/06 08:54:24;;;;;;;17.40;15.53;;;15.00;28.80;;;;;;5135269;27;20462;-46
2022/03/06 08:56:50;;;;;;;17.50;15.60;;;15.20;28.40;;;;;;5137481;27;20752;-46
2022/03/06 08:59:19;;;;;;;17.30;15.60;;;15.40;28.10;;;;;;5134848;27;20463;-46
2022/03/06 09:01:48;;;;;;;16.53;14.77;;;15.60;27.80;;;;;;5136915;27;20418;-47
2022/03/06 09:04:14;;;;;;;16.33;14.70;;;15.80;27.60;;;;;;5134618;27;20409;-48
2022/03/06 09:06:41;;;;;;;16.10;14.40;;;16.10;27.40;;;;;;5137249;27;20494;-47
2022/03/06 09:09:08;;;;;;;17.13;14.60;;;16.30;27.30;;;;;;5137531;27;20416;-47
2022/03/06 09:11:34;;;;;;;16.63;14.63;;;16.50;27.20;;;;;;5135730;27;20738;-47
2022/03/06 09:14:00;;;;;;;16.67;14.97;;;16.80;27.00;;;;;;5115736;28;20422;-47
2022/03/06 09:16:26;;;;;;;16.27;14.57;;;17.00;26.80;;;;;;5114157;28;20495;-47
2022/03/06 09:18:52;;;;;;;15.47;13.87;;;17.30;26.50;;;;;;5115833;28;20470;-47
2022/03/06 09:21:18;;;;;;;16.03;14.43;;;17.60;25.90;;;;;;5114997;28;20533;-47
2022/03/06 09:23:44;;;;;;;15.07;13.47;;;17.70;25.80;;;;;;5117161;28;20421;-47
2022/03/06 09:26:10;;;;;;;16.33;13.67;;;17.90;25.90;;;;;;5114922;28;20711;-47
2022/03/06 09:28:37;;;;;;;16.27;14.67;;;18.30;26.00;;;;;;5116952;28;20413;-47
2022/03/06 09:31:03;;;;;;;15.70;14.20;;;18.80;25.80;;;;;;5113908;28;20466;-47
2022/03/06 09:33:30;;;;;;;15.43;13.83;;;19.10;25.40;;;;;;5117330;28;20469;-47
2022/03/06 09:35:56;;;;;;;15.50;13.90;;;19.40;25.00;;;;;;5114517;28;20412;-46
2022/03/06 09:38:22;;;;;;;14.53;13.00;;;19.30;24.50;;;;;;5117282;28;20416;-47
2022/03/06 09:40:48;;;;;;;14.70;13.30;;;19.60;24.40;;;;;;5116093;28;20424;-47
2022/03/06 09:43:18;;;;;;;15.50;13.10;;;19.80;24.30;;;;;;5113888;28;20438;-47
2022/03/06 09:45:46;;;;;;;15.73;14.17;;;20.20;24.30;;;;;;5115602;28;20412;-47
2022/03/06 09:48:15;;;;;;;13.90;12.50;;;20.40;24.10;;;;;;5117620;28;20432;-47
2022/03/06 09:50:43;;;;;;;14.90;13.50;;;20.60;24.00;;;;;;5120720;28;20802;-46
2022/03/06 09:53:09;;;;;;;13.43;12.17;;;20.80;23.70;;;;;;5101628;28;20452;-47
2022/03/06 09:55:35;;;;;;;13.97;12.67;;;21.10;23.60;;;;;;5118961;28;20455;-47
2022/03/06 09:58:02;;;;;;;14.33;12.83;;;21.40;23.80;;;;;;5117087;28;20418;-46
2022/03/06 10:00:28;;;;;;;14.60;13.17;;;21.70;23.40;;;;;;5120099;28;20507;-47
2022/03/06 10:03:02;;;;;;;13.73;12.43;;;21.90;23.20;;;;;;5117441;28;20518;-47
2022/03/06 10:05:37;;;;;;;15.10;13.50;;;22.30;23.30;;;;;;5119922;28;20792;-47
2022/03/06 10:08:18;;;;;;;14.53;13.00;;;22.30;23.10;;;;;;5117662;28;20418;-47
2022/03/06 10:10:46;;;;;;;14.07;12.67;;;22.20;23.10;;;;;;5120824;28;20472;-47
2022/03/06 10:13:36;;;;;;;14.40;13.00;;;22.40;22.80;;;;;;5117565;28;20909;-47
2022/03/06 10:16:19;;;;;;;14.90;13.40;;;22.60;22.50;;;;;;5092108;27;20580;-47
2022/03/06 10:18:50;;;;;;;15.67;14.07;;;23.10;22.40;;;;;;5122480;27;20433;-47
2022/03/06 10:21:20;;;;;;;15.70;14.20;;;23.40;22.10;;;;;;5138153;27;20429;-46
2022/03/06 10:23:49;;;;;;;14.83;13.53;;;23.20;22.00;;;;;;5140897;27;20963;-47
2022/03/06 10:26:22;;;;;;;15.73;14.13;;;23.10;22.10;;;;;;5140295;27;20462;-47
2022/03/06 10:28:54;;;;;;;15.53;14.07;;;23.30;22.00;;;;;;5134219;27;20452;-47
2022/03/06 10:31:23;;;;;;;15.03;13.63;;;23.50;21.80;;;;;;5128729;27;20475;-47
2022/03/06 10:34:10;;;;;;;14.60;13.20;;;23.50;21.80;;;;;;5125088;27;20458;-47
2022/03/06 10:36:36;;;;;;;15.17;13.77;;;23.70;21.80;;;;;;5129140;27;20798;-47
2022/03/06 10:39:09;;;;;;;16.00;14.50;;;24.10;21.70;;;;;;5125470;27;20428;-47
2022/03/06 10:41:38;;;;;;;14.80;13.30;;;24.40;21.70;;;;;;5129137;27;20455;-47
2022/03/06 10:44:06;;;;;;;13.23;11.67;;;25.00;22.50;;;;;;5125945;27;20830;-48
2022/03/06 10:46:34;;;;;;;10.13;9.10;;;25.60;24.30;;;;;;5134635;27;20469;-48
2022/03/06 10:49:08;;;;;;;12.73;11.63;;;26.20;24.80;;;;;;5139050;27;20656;-47
2022/03/06 10:51:41;;;;;;;11.90;10.60;;;26.90;24.10;;;;;;5141009;27;20497;-48
2022/03/06 10:54:08;;;;;;;12.07;11.07;;;27.40;23.70;;;;;;5139448;27;20710;-47
2022/03/06 10:56:34;;;;;;;12.20;11.10;;;27.80;23.70;;;;;;5136455;27;20427;-47
2022/03/06 10:59:03;;;;;;;12.97;11.80;;;28.20;23.50;;;;;;5137403;27;20911;-48
2022/03/06 11:01:30;;;;;;;12.63;11.53;;;28.60;23.00;;;;;;5129003;27;20476;-48
2022/03/06 11:04:00;;;;;;;11.50;10.60;;;29.30;23.10;;;;;;5129407;27;20510;-48
2022/03/06 11:06:28;;;;;;;12.70;11.63;;;29.60;23.30;;;;;;5123926;27;20434;-48
2022/03/06 11:08:55;;;;;;;13.70;12.50;;;29.30;23.40;;;;;;5122212;27;20817;-48
2022/03/06 11:11:21;;;;;;;12.30;11.20;;;28.60;22.80;;;;;;5115458;28;20441;-47
2022/03/06 11:13:48;;;;;;;11.40;10.40;;;27.70;23.00;;;;;;5099819;28;20758;-47
2022/03/06 11:16:18;;;;;;;12.33;11.23;;;26.70;23.50;;;;;;5117342;28;20462;-47
2022/03/06 11:18:44;;;;;;;11.67;10.67;;;25.90;24.10;;;;;;5118278;28;20419;-47
2022/03/06 11:21:11;;;;;;;13.33;12.03;;;25.30;24.60;;;;;;5116593;28;20479;-47
2022/03/06 11:23:50;;;;;;;12.23;11.10;;;24.60;24.70;;;;;;5101585;28;20517;-47
2022/03/06 11:26:16;;;;;;;12.63;11.50;;;24.00;24.80;;;;;;5100020;28;20842;-47
2022/03/06 11:29:02;;;;;;;10.80;9.80;;;23.60;25.10;;;;;;5118785;28;20410;-47
2022/03/06 11:32:03;;;;;;;12.27;11.10;;;23.50;25.30;;;;;;5117166;28;20434;-47
2022/03/06 11:34:32;;;;;;;11.63;10.53;;;23.30;25.30;;;;;;5115225;28;20440;-47
2022/03/06 11:37:02;;;;;;;11.27;10.27;;;22.90;25.30;;;;;;5117055;28;20477;-47
2022/03/06 11:39:31;;;;;;;11.10;10.10;;;22.50;25.40;;;;;;5118488;28;20445;-47
2022/03/06 11:41:59;;;;;;;12.70;11.40;;;22.20;25.70;;;;;;5116765;28;20494;-48
2022/03/06 11:44:48;;;;;;;10.83;9.73;;;21.90;25.70;;;;;;5119072;28;20455;-48
2022/03/06 11:47:18;;;;;;;11.23;10.13;;;21.60;26.00;;;;;;5117948;28;20731;-48
2022/03/06 11:49:53;;;;;;;9.93;9.13;;;21.50;26.70;;;;;;5117964;28;20417;-49
2022/03/06 11:52:32;;;;;;;11.77;10.63;;;21.40;27.00;;;;;;5115322;28;20761;-48
2022/03/06 11:54:58;;;;;;;12.53;11.37;;;21.40;27.00;;;;;;5115742;28;20421;-47
2022/03/06 11:57:39;;;;;;;15.23;13.63;;;21.40;26.30;;;;;;5117500;28;20416;-47
2022/03/06 12:00:19;;;;;;;13.20;12.00;;;21.20;24.40;;;;;;5098644;28;20437;-47
2022/03/06 12:02:49;;;;;;;15.00;13.50;;;21.00;23.50;;;;;;5117401;28;20866;-47
2022/03/06 12:05:16;;;;;;;14.13;12.87;;;20.80;23.10;;;;;;5116538;28;20487;-47
2022/03/06 12:07:45;;;;;;;13.50;12.20;;;21.10;22.90;;;;;;5118940;28;20497;-47
2022/03/06 12:10:12;;;;;;;14.10;12.70;;;21.30;22.70;;;;;;5098525;28;20398;-47
2022/03/06 12:12:39;;;;;;;13.90;12.50;;;21.30;22.60;;;;;;5100925;28;20588;-47
2022/03/06 12:15:25;;;;;;;14.53;13.13;;;21.30;22.50;;;;;;5114656;28;20815;-47
2022/03/06 12:17:51;;;;;;;13.37;11.97;;;21.30;22.30;;;;;;5117456;28;20494;-46
2022/03/06 12:20:25;;;;;;;14.13;12.73;;;21.60;22.20;;;;;;5116298;28;20413;-47
2022/03/06 12:22:54;;;;;;;13.23;12.03;;;21.80;22.00;;;;;;5118121;28;20802;-47
2022/03/06 12:25:25;;;;;;;15.50;14.07;;;21.70;21.90;;;;;;5116192;28;20395;-46
2022/03/06 12:28:03;;;;;;;14.07;12.77;;;21.60;21.90;;;;;;5118613;28;20683;-47
2022/03/06 12:30:34;;;;;;;14.20;12.80;;;21.70;21.90;;;;;;5116799;28;20681;-46
2022/03/06 12:33:26;;;;;;;13.90;12.50;;;22.50;22.10;;;;;;5099355;28;20806;-47